Time;durP1;ratioP1;P1;durP2;ratioP2;P2;SDS_P1;SDS_P2;PMS_P1;PMS_P2;Temp;Humidity;BMP_temperature;BMP_pressure;BME280_temperature;BME280_humidity;BME280_pressure;Samples;Min_cycle;Max_cycle;Signal;HPM_P1;HPM_P2
2022/08/03 00:00:34;;;;;;;2.47;2.28;;;22.00;99.90;;;;;;4972292;28;20255;-79
2022/08/03 00:03:04;;;;;;;1.77;1.67;;;22.10;99.90;;;;;;4972823;28;20299;-78
2022/08/03 00:05:33;;;;;;;2.47;2.20;;;22.10;99.90;;;;;;4972779;28;20205;-79
2022/08/03 00:08:01;;;;;;;4.55;2.13;;;22.00;99.90;;;;;;4972513;28;20232;-79
2022/08/03 00:10:31;;;;;;;2.70;2.42;;;22.00;99.90;;;;;;4972666;28;20233;-79
2022/08/03 00:12:59;;;;;;;2.88;2.67;;;22.00;99.90;;;;;;4972469;28;20235;-79
2022/08/03 00:15:27;;;;;;;2.15;1.95;;;22.00;99.90;;;;;;4972544;28;20197;-79
2022/08/03 00:17:56;;;;;;;2.30;2.10;;;21.90;99.90;;;;;;4972747;28;20259;-79
2022/08/03 00:20:25;;;;;;;1.50;1.40;;;21.90;99.90;;;;;;4972373;28;20233;-78
2022/08/03 00:22:54;;;;;;;2.42;2.22;;;21.90;99.90;;;;;;4972681;28;20263;-79
2022/08/03 00:25:22;;;;;;;3.72;1.92;;;21.90;99.90;;;;;;4972230;28;20210;-78
2022/08/03 00:27:51;;;;;;;1.88;1.77;;;21.80;99.90;;;;;;4971734;28;20204;-79
2022/08/03 00:30:19;;;;;;;1.77;1.67;;;21.80;99.90;;;;;;4972204;28;20284;-79
2022/08/03 00:32:48;;;;;;;1.77;1.67;;;21.80;99.90;;;;;;4972590;28;20270;-79
2022/08/03 00:35:16;;;;;;;2.72;2.30;;;21.70;99.90;;;;;;4972231;28;20239;-78
2022/08/03 00:38:07;;;;;;;1.75;1.65;;;21.70;99.90;;;;;;4972009;28;20232;-79
2022/08/03 00:40:35;;;;;;;2.00;1.90;;;21.60;99.90;;;;;;4971804;28;20252;-79
2022/08/03 00:43:06;;;;;;;2.05;1.92;;;21.60;99.90;;;;;;4972223;28;20208;-79
2022/08/03 00:45:36;;;;;;;2.70;2.22;;;21.60;99.90;;;;;;4972305;28;20284;-79
2022/08/03 00:48:06;;;;;;;1.90;1.80;;;21.60;99.90;;;;;;4972211;28;20240;-79
2022/08/03 00:50:55;;;;;;;2.13;1.98;;;21.50;99.90;;;;;;4972560;28;20231;-79
2022/08/03 00:53:25;;;;;;;2.22;2.13;;;21.50;99.90;;;;;;4971878;28;20243;-79
2022/08/03 00:55:53;;;;;;;1.70;1.60;;;21.40;99.90;;;;;;4972150;28;20291;-79
2022/08/03 00:58:23;;;;;;;2.28;2.17;;;21.40;99.90;;;;;;4972141;28;20288;-79
2022/08/03 01:00:51;;;;;;;2.30;2.10;;;21.40;99.90;;;;;;4971520;28;20256;-79
2022/08/03 01:03:19;;;;;;;2.00;1.90;;;21.40;99.90;;;;;;4971632;28;20224;-79
2022/08/03 01:05:56;;;;;;;2.00;1.90;;;21.40;99.90;;;;;;4971869;28;20236;-79
2022/08/03 01:08:35;;;;;;;1.90;1.80;;;21.40;99.90;;;;;;4971527;28;20300;-79
2022/08/03 01:11:10;;;;;;;2.35;2.15;;;21.30;99.90;;;;;;4971705;28;20311;-79
2022/08/03 01:13:48;;;;;;;2.88;1.90;;;21.30;99.90;;;;;;4972004;28;20282;-79
2022/08/03 01:16:43;;;;;;;1.80;1.70;;;21.20;99.90;;;;;;4971649;28;20215;-79
2022/08/03 01:19:29;;;;;;;5.00;2.38;;;21.20;99.90;;;;;;4971766;28;20220;-79
2022/08/03 01:22:08;;;;;;;2.50;2.30;;;21.10;99.90;;;;;;4972115;28;20212;-79
2022/08/03 01:24:50;;;;;;;2.55;2.35;;;21.10;99.90;;;;;;4971583;28;20295;-79
2022/08/03 01:27:23;;;;;;;1.85;1.70;;;21.10;99.90;;;;;;4971734;28;20292;-79
2022/08/03 01:29:59;;;;;;;1.88;1.77;;;21.10;99.90;;;;;;4972101;28;20259;-79
2022/08/03 01:32:35;;;;;;;3.55;2.00;;;21.10;99.90;;;;;;4971615;28;20295;-79
2022/08/03 01:35:29;;;;;;;2.10;1.80;;;21.10;99.90;;;;;;4971442;28;20213;-79
2022/08/03 01:38:00;;;;;;;1.73;1.63;;;21.10;99.90;;;;;;4971853;28;20204;-78
2022/08/03 01:40:32;;;;;;;2.50;1.98;;;21.10;99.90;;;;;;4970298;28;20319;-79
2022/08/03 01:43:03;;;;;;;1.70;1.60;;;21.10;99.90;;;;;;4971041;28;20272;-79
2022/08/03 01:45:34;;;;;;;2.03;1.92;;;21.10;99.90;;;;;;4971276;28;20303;-79
2022/08/03 01:48:03;;;;;;;2.22;2.03;;;21.10;99.90;;;;;;4971613;28;20209;-83
2022/08/03 01:50:33;;;;;;;2.13;1.95;;;21.10;99.90;;;;;;4970432;28;20228;-80
2022/08/03 01:53:02;;;;;;;1.73;1.63;;;21.10;99.90;;;;;;5011442;28;20209;-80
2022/08/03 01:55:32;;;;;;;2.08;1.83;;;21.10;99.90;;;;;;5064964;28;20283;-80
2022/08/03 01:58:03;;;;;;;1.80;1.70;;;21.10;99.90;;;;;;4987052;28;20280;-80
2022/08/03 02:00:36;;;;;;;2.15;1.98;;;21.10;99.90;;;;;;5071807;28;20229;-80
2022/08/03 02:03:06;;;;;;;1.52;1.42;;;21.10;99.90;;;;;;5072486;28;20208;-81
2022/08/03 02:05:35;;;;;;;1.63;1.52;;;21.10;99.90;;;;;;5072427;28;20213;-81
2022/08/03 02:08:06;;;;;;;2.08;1.95;;;21.00;99.90;;;;;;5072326;28;20215;-81
2022/08/03 02:10:36;;;;;;;2.17;1.98;;;21.00;99.90;;;;;;5072294;28;20259;-81
2022/08/03 02:13:07;;;;;;;2.00;1.90;;;21.00;99.90;;;;;;5072257;28;20272;-81
2022/08/03 02:15:38;;;;;;;2.05;1.90;;;21.00;99.90;;;;;;5072301;28;20284;-81
2022/08/03 02:18:09;;;;;;;1.80;1.70;;;21.00;99.90;;;;;;5072073;28;20211;-81
2022/08/03 02:20:39;;;;;;;2.33;2.13;;;20.90;99.90;;;;;;5072089;28;20253;-81
2022/08/03 02:23:07;;;;;;;2.60;1.85;;;20.90;99.90;;;;;;5072039;28;20283;-81
2022/08/03 02:25:42;;;;;;;1.90;1.60;;;20.80;99.90;;;;;;5072065;28;20213;-81
2022/08/03 02:28:15;;;;;;;2.45;2.10;;;20.70;99.90;;;;;;5072202;28;20208;-81
2022/08/03 02:30:54;;;;;;;2.08;1.88;;;20.70;99.90;;;;;;5072142;28;20221;-81
2022/08/03 02:33:27;;;;;;;2.00;1.90;;;20.70;99.90;;;;;;5071620;28;20205;-81
2022/08/03 02:35:57;;;;;;;2.63;2.35;;;20.70;99.90;;;;;;5072573;28;20261;-81
2022/08/03 02:38:34;;;;;;;2.00;1.90;;;20.70;99.90;;;;;;5072113;28;20205;-81
2022/08/03 02:41:07;;;;;;;1.80;1.70;;;20.70;99.90;;;;;;5071688;28;20312;-81
2022/08/03 02:43:37;;;;;;;2.45;2.25;;;20.70;99.90;;;;;;5071943;28;20284;-81
2022/08/03 02:46:32;;;;;;;1.77;1.67;;;20.70;99.90;;;;;;5072038;28;20209;-81
2022/08/03 02:49:02;;;;;;;1.83;1.63;;;20.70;99.90;;;;;;5072014;28;20268;-81
2022/08/03 02:51:53;;;;;;;2.53;2.00;;;20.70;99.90;;;;;;5075234;28;20228;-80
2022/08/03 02:54:23;;;;;;;4.25;2.40;;;20.60;99.90;;;;;;5075587;28;20288;-81
2022/08/03 02:56:54;;;;;;;1.88;1.77;;;20.60;99.90;;;;;;5075634;28;20209;-81
2022/08/03 02:59:23;;;;;;;3.97;2.20;;;20.60;99.90;;;;;;5075471;28;20225;-81
2022/08/03 03:01:54;;;;;;;2.80;2.20;;;20.60;99.90;;;;;;5075666;28;20304;-80
2022/08/03 03:04:23;;;;;;;1.75;1.65;;;20.60;99.90;;;;;;5075605;28;20213;-81
2022/08/03 03:07:00;;;;;;;2.63;2.15;;;20.60;99.90;;;;;;5075657;28;20234;-81
2022/08/03 03:09:32;;;;;;;1.80;1.70;;;20.50;99.90;;;;;;5075455;28;20212;-81
2022/08/03 03:12:11;;;;;;;1.90;1.80;;;20.50;99.90;;;;;;5075703;28;20205;-81
2022/08/03 03:14:40;;;;;;;1.67;1.58;;;20.50;99.90;;;;;;5075862;28;20274;-81
2022/08/03 03:17:11;;;;;;;2.03;1.92;;;20.50;99.90;;;;;;5075268;28;20212;-81
2022/08/03 03:19:41;;;;;;;2.50;2.30;;;20.40;99.90;;;;;;5075062;28;20248;-81
2022/08/03 03:22:10;;;;;;;1.90;1.80;;;20.40;99.90;;;;;;5075352;28;20205;-80
2022/08/03 03:24:41;;;;;;;1.90;1.80;;;20.40;99.90;;;;;;5075266;28;20205;-80
2022/08/03 03:27:10;;;;;;;1.63;1.52;;;20.40;99.90;;;;;;5075450;28;20224;-81
2022/08/03 03:29:43;;;;;;;1.52;1.45;;;20.40;99.90;;;;;;5074916;28;20225;-81
2022/08/03 03:32:13;;;;;;;1.70;1.60;;;20.30;99.90;;;;;;5075089;28;20251;-81
2022/08/03 03:34:43;;;;;;;3.78;2.00;;;20.30;99.90;;;;;;5074796;28;20209;-81
2022/08/03 03:37:11;;;;;;;1.98;1.85;;;20.30;99.90;;;;;;5074907;28;20295;-81
2022/08/03 03:39:40;;;;;;;3.92;2.50;;;20.30;99.90;;;;;;5074846;28;20225;-81
2022/08/03 03:42:08;;;;;;;2.60;2.15;;;20.20;99.90;;;;;;5075171;28;20296;-81
2022/08/03 03:44:36;;;;;;;1.85;1.75;;;20.30;99.90;;;;;;5075065;28;20214;-81
2022/08/03 03:47:05;;;;;;;6.68;1.83;;;20.20;99.90;;;;;;5074798;28;20205;-80
2022/08/03 03:49:36;;;;;;;1.95;1.85;;;20.30;99.90;;;;;;5074320;28;20298;-80
2022/08/03 03:52:06;;;;;;;2.55;2.35;;;20.20;99.90;;;;;;5075072;28;20201;-80
2022/08/03 03:54:41;;;;;;;2.72;2.47;;;20.20;99.90;;;;;;5074526;28;20312;-81
2022/08/03 03:57:10;;;;;;;1.90;1.80;;;20.20;99.90;;;;;;5074875;28;20207;-80
2022/08/03 03:59:41;;;;;;;2.65;2.20;;;20.20;99.90;;;;;;5074473;28;20209;-81
2022/08/03 04:02:11;;;;;;;1.85;1.75;;;20.30;99.90;;;;;;5073778;28;20205;-79
2022/08/03 04:13:07;;;;;;;1.80;1.70;;;20.20;99.90;;;;;;5074165;28;20197;-79
2022/08/03 04:15:37;;;;;;;2.30;2.10;;;20.20;99.90;;;;;;5074512;28;20219;-79
2022/08/03 04:18:08;;;;;;;1.95;1.77;;;20.10;99.90;;;;;;5074514;28;20215;-79
2022/08/03 04:20:40;;;;;;;2.15;1.98;;;20.10;99.90;;;;;;5073928;28;20251;-79
2022/08/03 04:23:09;;;;;;;3.90;1.92;;;20.10;99.90;;;;;;5074147;28;20209;-78
2022/08/03 04:25:44;;;;;;;2.05;1.95;;;20.10;99.90;;;;;;5074501;28;20239;-79
2022/08/03 04:28:13;;;;;;;1.85;1.75;;;20.10;99.90;;;;;;5074195;28;20291;-79
2022/08/03 04:31:01;;;;;;;2.08;1.98;;;20.10;99.90;;;;;;5074809;28;20229;-79
2022/08/03 04:33:30;;;;;;;2.13;2.03;;;20.20;99.90;;;;;;5073443;28;20288;-81
2022/08/03 04:36:04;;;;;;;2.22;2.03;;;20.10;99.90;;;;;;5073898;28;20205;-79
2022/08/03 04:38:38;;;;;;;2.10;2.00;;;20.20;99.90;;;;;;5073528;28;20304;-79
2022/08/03 04:41:08;;;;;;;2.30;2.10;;;20.20;99.90;;;;;;5073519;28;20256;-79
2022/08/03 04:43:39;;;;;;;2.20;2.10;;;20.20;99.90;;;;;;5074226;28;20209;-79
2022/08/03 04:46:09;;;;;;;2.80;2.60;;;20.20;99.90;;;;;;5073860;28;20209;-79
2022/08/03 04:48:38;;;;;;;8.27;2.30;;;20.20;99.90;;;;;;5073245;28;20288;-80
2022/08/03 04:51:13;;;;;;;2.33;2.17;;;20.20;99.90;;;;;;5073691;28;20225;-79
2022/08/03 04:53:44;;;;;;;2.60;2.22;;;20.20;99.90;;;;;;5073641;28;20211;-79
2022/08/03 04:56:12;;;;;;;3.35;3.08;;;20.20;99.90;;;;;;5074009;28;20407;-79
2022/08/03 04:58:40;;;;;;;5.68;2.67;;;20.20;99.90;;;;;;5073412;28;20274;-79
2022/08/03 05:01:09;;;;;;;2.58;2.38;;;20.20;99.90;;;;;;5073027;28;20256;-79
2022/08/03 05:03:38;;;;;;;2.33;2.13;;;20.20;99.90;;;;;;5073373;28;20207;-80
2022/08/03 05:06:06;;;;;;;3.03;2.30;;;20.30;99.90;;;;;;5073101;28;20232;-79
2022/08/03 05:08:40;;;;;;;3.20;2.58;;;20.30;99.90;;;;;;5073125;28;20197;-80
2022/08/03 05:11:15;;;;;;;3.00;2.70;;;20.30;99.90;;;;;;5073160;28;20231;-80
2022/08/03 05:13:44;;;;;;;1.77;1.67;;;20.30;99.90;;;;;;5073327;28;20228;-79
2022/08/03 05:16:13;;;;;;;2.63;2.42;;;20.40;99.90;;;;;;5073027;28;20208;-79
2022/08/03 05:18:42;;;;;;;2.38;2.17;;;20.40;99.90;;;;;;5072992;28;20279;-80
2022/08/03 05:21:12;;;;;;;2.58;2.38;;;20.40;99.90;;;;;;5072578;28;20292;-79
2022/08/03 05:23:42;;;;;;;2.63;2.47;;;20.50;99.90;;;;;;5072854;28;20236;-79
2022/08/03 05:26:11;;;;;;;2.47;2.28;;;20.50;99.90;;;;;;5073236;28;20217;-79
2022/08/03 05:28:40;;;;;;;10.52;2.60;;;20.50;99.90;;;;;;5022798;28;20201;-80
2022/08/03 05:31:19;;;;;;;2.20;2.08;;;20.60;99.90;;;;;;4975169;28;20216;-80
2022/08/03 05:33:47;;;;;;;2.22;2.03;;;20.60;99.90;;;;;;4970513;28;20243;-80
2022/08/03 05:36:16;;;;;;;22.00;2.85;;;20.70;99.90;;;;;;4953032;28;20217;-80
2022/08/03 05:38:46;;;;;;;2.28;2.08;;;20.70;99.90;;;;;;4952602;28;20213;-84
2022/08/03 05:41:14;;;;;;;2.10;2.00;;;20.80;99.90;;;;;;4952523;28;20237;-82
2022/08/03 05:43:51;;;;;;;4.18;2.90;;;20.80;99.90;;;;;;4952793;28;20214;-86
2022/08/03 05:46:20;;;;;;;2.30;2.10;;;20.90;99.90;;;;;;5011962;28;20208;-86
2022/08/03 05:48:48;;;;;;;2.22;2.10;;;20.90;99.90;;;;;;4972042;28;20297;-78
2022/08/03 05:51:17;;;;;;;2.50;2.30;;;21.00;99.90;;;;;;4971574;28;20280;-86
2022/08/03 05:53:47;;;;;;;3.60;1.92;;;21.00;99.90;;;;;;4971976;28;20204;-87
2022/08/03 05:56:15;;;;;;;2.17;2.03;;;21.10;99.90;;;;;;4971607;28;20216;-86
2022/08/03 05:58:45;;;;;;;2.00;1.90;;;21.10;99.90;;;;;;4970516;28;20269;-78
2022/08/03 06:01:14;;;;;;;2.05;1.77;;;21.10;99.90;;;;;;4970967;28;20248;-84
2022/08/03 06:03:43;;;;;;;2.20;2.10;;;21.20;99.90;;;;;;4971918;28;20199;-86
2022/08/03 06:06:11;;;;;;;2.88;2.05;;;21.20;99.90;;;;;;4971619;28;20243;-86
2022/08/03 06:08:40;;;;;;;2.05;1.95;;;21.30;99.90;;;;;;4974042;28;20220;-85
2022/08/03 06:11:10;;;;;;;3.00;2.22;;;21.40;99.90;;;;;;4978238;28;20236;-85
2022/08/03 06:13:39;;;;;;;3.17;2.17;;;21.40;99.90;;;;;;4973688;28;20204;-86
2022/08/03 06:16:07;;;;;;;2.00;1.90;;;21.50;99.90;;;;;;4971644;28;20292;-84
2022/08/03 06:18:36;;;;;;;2.28;2.13;;;21.60;99.90;;;;;;4971394;28;20236;-86
2022/08/03 06:21:04;;;;;;;3.00;2.17;;;21.70;99.90;;;;;;4971326;28;20227;-86
2022/08/03 06:23:46;;;;;;;1.77;1.67;;;21.80;99.90;;;;;;4970883;28;20208;-84
2022/08/03 06:26:25;;;;;;;2.80;2.20;;;21.80;99.90;;;;;;4974050;28;20287;-86
2022/08/03 06:28:53;;;;;;;1.92;1.83;;;21.90;99.90;;;;;;4974288;28;20232;-83
2022/08/03 06:31:24;;;;;;;2.28;2.05;;;22.00;99.90;;;;;;4974279;28;20243;-86
2022/08/03 06:34:05;;;;;;;2.65;1.40;;;22.10;99.90;;;;;;4974508;28;20232;-86
2022/08/03 06:36:53;;;;;;;2.42;2.22;;;22.20;99.90;;;;;;4974913;28;20212;-86
2022/08/03 06:39:29;;;;;;;2.20;2.10;;;22.30;99.90;;;;;;4974624;28;20219;-86
2022/08/03 06:41:59;;;;;;;1.98;1.75;;;22.50;99.90;;;;;;4974101;28;20224;-86
2022/08/03 06:44:27;;;;;;;2.20;2.00;;;22.60;99.90;;;;;;4974479;28;20287;-86
2022/08/03 06:46:55;;;;;;;2.65;2.42;;;22.80;99.90;;;;;;4974426;28;20205;-86
2022/08/03 06:49:24;;;;;;;3.33;2.10;;;22.90;99.90;;;;;;4974334;28;20268;-86
2022/08/03 06:51:52;;;;;;;3.15;2.38;;;23.10;99.90;;;;;;4974492;28;20240;-85
2022/08/03 06:54:35;;;;;;;2.75;2.00;;;23.30;99.90;;;;;;4974761;28;20299;-86
2022/08/03 06:57:06;;;;;;;4.35;3.17;;;23.40;99.90;;;;;;4974463;28;20244;-86
2022/08/03 06:59:35;;;;;;;4.05;2.47;;;23.40;99.90;;;;;;4974312;28;20205;-86
2022/08/03 07:02:23;;;;;;;2.92;2.42;;;23.60;99.90;;;;;;4974348;28;20220;-86
2022/08/03 07:04:55;;;;;;;2.90;2.65;;;23.80;99.90;;;;;;4974632;28;20208;-86
2022/08/03 07:07:23;;;;;;;2.38;2.17;;;24.00;99.90;;;;;;4974184;28;20217;-86
2022/08/03 07:09:51;;;;;;;3.83;3.08;;;24.10;99.90;;;;;;4974390;28;20228;-84
2022/08/03 07:12:27;;;;;;;3.33;3.03;;;24.20;99.90;;;;;;4973391;28;20223;-89
2022/08/03 07:14:57;;;;;;;3.60;2.70;;;24.50;99.90;;;;;;4979028;28;20243;-91
2022/08/03 07:17:30;;;;;;;3.28;2.58;;;24.70;99.90;;;;;;4974493;28;20209;-89
2022/08/03 07:19:59;;;;;;;2.65;2.33;;;24.80;99.90;;;;;;4975071;28;20252;-90
2022/08/03 07:22:28;;;;;;;2.38;2.08;;;24.90;99.90;;;;;;4976352;28;20293;-89
2022/08/03 07:24:56;;;;;;;2.10;1.92;;;25.20;99.90;;;;;;4973730;28;20258;-91
2022/08/03 07:27:28;;;;;;;3.45;2.50;;;25.30;99.90;;;;;;4973778;28;20227;-90
2022/08/03 07:29:57;;;;;;;2.10;2.00;;;25.70;99.90;;;;;;4969999;28;20240;-90
2022/08/03 07:32:25;;;;;;;1.83;1.73;;;25.60;99.90;;;;;;4970280;28;20208;-90
2022/08/03 07:34:54;;;;;;;2.17;2.00;;;26.10;99.90;;;;;;5036694;28;20201;-89
2022/08/03 07:37:33;;;;;;;2.83;2.58;;;26.20;99.90;;;;;;4972289;28;20197;-90
2022/08/03 07:40:03;;;;;;;3.15;2.50;;;26.40;99.90;;;;;;4963177;28;20244;-90
2022/08/03 07:42:33;;;;;;;2.60;2.40;;;26.40;99.90;;;;;;4984477;28;20237;-88
2022/08/03 07:45:06;;;;;;;2.20;2.00;;;26.60;99.90;;;;;;4966654;28;20225;-86
2022/08/03 07:47:43;;;;;;;2.10;2.00;;;26.80;99.90;;;;;;4967608;28;20197;-89
2022/08/03 07:50:21;;;;;;;1.80;1.70;;;27.20;99.90;;;;;;4955299;28;20269;-89
2022/08/03 07:52:52;;;;;;;3.63;2.22;;;27.50;99.90;;;;;;4968994;28;20196;-88
2022/08/03 07:55:24;;;;;;;2.72;2.22;;;28.10;99.90;;;;;;4973435;28;20203;-92
2022/08/03 07:58:06;;;;;;;1.80;1.70;;;29.00;99.60;;;;;;4973968;28;20207;-95
2022/08/03 08:00:34;;;;;;;2.10;1.80;;;29.50;96.60;;;;;;4973254;28;20273;-89
2022/08/03 08:03:03;;;;;;;2.95;1.73;;;29.90;95.70;;;;;;4972566;28;20220;-89
2022/08/03 08:05:31;;;;;;;1.83;1.73;;;30.20;94.60;;;;;;4972911;28;20211;-90
2022/08/03 08:08:01;;;;;;;1.65;1.55;;;30.50;94.50;;;;;;4973180;28;20212;-88
2022/08/03 08:10:29;;;;;;;1.88;1.77;;;31.10;92.80;;;;;;4972876;28;20228;-90
2022/08/03 08:12:58;;;;;;;1.60;1.50;;;31.00;91.70;;;;;;4972632;28;20232;-89
2022/08/03 08:15:28;;;;;;;2.20;2.00;;;31.30;90.50;;;;;;4972535;28;20219;-89
2022/08/03 08:18:01;;;;;;;2.47;1.88;;;31.60;89.10;;;;;;4972878;28;20257;-89
2022/08/03 08:20:32;;;;;;;1.70;1.60;;;31.40;87.40;;;;;;4972712;28;20234;-89
2022/08/03 08:23:08;;;;;;;2.17;1.63;;;31.70;89.60;;;;;;4972719;28;20219;-89
2022/08/03 08:25:56;;;;;;;1.60;1.50;;;31.90;86.20;;;;;;4972746;28;20299;-89
2022/08/03 08:28:25;;;;;;;1.70;1.60;;;32.50;88.20;;;;;;4971938;28;20263;-89
2022/08/03 08:31:02;;;;;;;1.45;1.35;;;32.90;84.10;;;;;;4972530;28;20250;-89
2022/08/03 08:33:30;;;;;;;1.60;1.50;;;33.80;82.60;;;;;;4972757;28;20250;-89
2022/08/03 08:36:19;;;;;;;1.30;1.30;;;34.20;79.70;;;;;;4972112;28;20208;-89
2022/08/03 08:38:48;;;;;;;1.90;1.67;;;34.00;79.90;;;;;;4972400;28;20220;-90
2022/08/03 08:41:17;;;;;;;2.65;2.05;;;34.10;74.50;;;;;;4972424;28;20322;-89
2022/08/03 08:43:45;;;;;;;1.67;1.58;;;34.00;75.90;;;;;;4972107;28;20315;-90
2022/08/03 08:46:16;;;;;;;1.77;1.60;;;34.40;75.20;;;;;;4972046;28;20231;-89
2022/08/03 08:48:51;;;;;;;2.28;1.67;;;34.50;71.00;;;;;;4971517;28;20227;-89
2022/08/03 08:51:21;;;;;;;1.40;1.40;;;34.70;72.20;;;;;;4972276;28;20266;-90
2022/08/03 08:53:53;;;;;;;1.60;1.50;;;35.00;74.50;;;;;;4972345;28;20207;-88
2022/08/03 08:56:24;;;;;;;1.95;1.52;;;35.70;72.80;;;;;;4972830;28;20204;-89
2022/08/03 08:58:59;;;;;;;1.20;1.20;;;35.50;66.90;;;;;;4972194;28;20207;-89
2022/08/03 09:01:29;;;;;;;1.92;1.80;;;35.30;67.70;;;;;;4971999;28;20233;-89
2022/08/03 09:03:58;;;;;;;1.80;1.70;;;35.70;68.90;;;;;;4971937;28;20227;-88
2022/08/03 09:06:26;;;;;;;1.30;1.30;;;36.20;67.50;;;;;;4971943;28;20208;-89
2022/08/03 09:08:54;;;;;;;1.70;1.60;;;36.00;69.70;;;;;;4971699;28;20286;-89
2022/08/03 09:11:24;;;;;;;1.42;1.33;;;36.40;66.20;;;;;;4971907;28;20228;-89
2022/08/03 09:14:12;;;;;;;1.67;1.58;;;36.70;66.90;;;;;;4972144;28;20211;-89
2022/08/03 09:17:03;;;;;;;1.30;1.25;;;37.30;62.80;;;;;;4971876;28;20208;-88
2022/08/03 09:19:33;;;;;;;2.13;1.77;;;36.90;63.20;;;;;;4971500;28;20273;-88
2022/08/03 09:22:09;;;;;;;1.45;1.38;;;37.00;64.50;;;;;;4971653;28;20230;-89
2022/08/03 09:24:38;;;;;;;1.70;1.60;;;36.90;63.10;;;;;;4971697;28;20302;-88
2022/08/03 09:27:13;;;;;;;1.50;1.40;;;36.70;62.90;;;;;;4971494;28;20208;-89
2022/08/03 09:29:42;;;;;;;2.00;1.80;;;36.50;64.00;;;;;;4971488;28;20203;-88
2022/08/03 09:32:13;;;;;;;1.63;1.40;;;37.20;62.70;;;;;;4971208;28;20268;-88
2022/08/03 09:34:43;;;;;;;8.65;2.13;;;37.90;62.40;;;;;;4971681;28;20204;-88
2022/08/03 09:37:14;;;;;;;1.55;1.45;;;37.90;58.90;;;;;;4971729;28;20208;-88
2022/08/03 09:39:44;;;;;;;1.63;1.50;;;38.00;59.90;;;;;;4971257;28;20215;-89
2022/08/03 09:42:14;;;;;;;4.00;1.95;;;38.00;57.70;;;;;;4971418;28;20220;-88
2022/08/03 09:44:44;;;;;;;9.57;1.73;;;37.80;56.40;;;;;;4971096;28;20231;-88
2022/08/03 09:47:16;;;;;;;1.38;1.27;;;37.70;56.50;;;;;;4971450;28;20239;-88
2022/08/03 09:50:00;;;;;;;1.60;1.50;;;37.50;55.50;;;;;;4971140;28;20208;-88
2022/08/03 09:52:33;;;;;;;1.45;1.40;;;37.10;54.70;;;;;;4975251;28;20208;-88
2022/08/03 09:55:19;;;;;;;1.50;1.40;;;36.90;54.50;;;;;;4988416;28;20215;-88
2022/08/03 09:58:09;;;;;;;1.73;1.63;;;37.30;53.20;;;;;;4980271;28;20217;-88
2022/08/03 10:00:53;;;;;;;1.75;1.65;;;37.80;51.80;;;;;;4970860;28;20228;-88
2022/08/03 10:03:24;;;;;;;1.55;1.45;;;37.50;51.90;;;;;;4971183;28;20333;-88
2022/08/03 10:05:52;;;;;;;1.45;1.35;;;37.60;54.50;;;;;;4971048;28;20265;-88
2022/08/03 10:08:26;;;;;;;1.58;1.48;;;37.90;52.10;;;;;;4971150;28;20215;-89
2022/08/03 10:10:57;;;;;;;1.60;1.50;;;38.40;51.40;;;;;;4971252;28;20227;-88
2022/08/03 10:13:25;;;;;;;7.78;1.73;;;38.60;49.90;;;;;;4971170;28;20227;-88
2022/08/03 10:15:54;;;;;;;1.50;1.40;;;38.70;49.80;;;;;;4970674;28;20239;-88
2022/08/03 10:18:43;;;;;;;1.60;1.50;;;38.80;50.50;;;;;;4970806;28;20210;-88
2022/08/03 10:21:17;;;;;;;1.55;1.45;;;38.60;50.10;;;;;;4970837;28;20251;-88
2022/08/03 10:23:47;;;;;;;1.80;1.70;;;38.80;49.90;;;;;;4970674;28;20322;-88
2022/08/03 10:26:21;;;;;;;1.73;1.40;;;39.30;49.60;;;;;;4971315;28;20234;-88
2022/08/03 10:28:51;;;;;;;1.58;1.48;;;39.70;48.60;;;;;;4970839;28;20263;-88
2022/08/03 10:31:22;;;;;;;3.28;1.80;;;40.10;48.20;;;;;;4970705;28;20264;-88
2022/08/03 10:33:58;;;;;;;1.52;1.42;;;40.20;48.40;;;;;;4970886;28;20212;-88
2022/08/03 10:36:30;;;;;;;1.65;1.55;;;40.20;46.80;;;;;;4971065;28;20238;-88
2022/08/03 10:39:00;;;;;;;1.48;1.40;;;40.30;49.20;;;;;;4970707;28;20299;-88
2022/08/03 10:41:34;;;;;;;1.50;1.40;;;40.50;46.50;;;;;;4970646;28;20318;-87
2022/08/03 10:44:06;;;;;;;1.35;1.25;;;40.70;46.80;;;;;;4970514;28;20231;-87
2022/08/03 10:46:36;;;;;;;1.67;1.58;;;40.50;45.00;;;;;;4970411;28;20208;-87
2022/08/03 10:49:15;;;;;;;1.60;1.50;;;40.60;48.00;;;;;;4970683;28;20215;-86
2022/08/03 10:52:01;;;;;;;1.60;1.50;;;40.40;46.50;;;;;;4970570;28;20208;-86
2022/08/03 10:57:45;;;;;;;2.92;1.77;;;40.70;47.80;;;;;;4970568;28;20216;-88
2022/08/03 11:00:17;;;;;;;1.90;1.80;;;40.70;43.70;;;;;;4970377;28;20256;-87
2022/08/03 11:03:09;;;;;;;1.25;1.15;;;40.60;43.80;;;;;;4970521;28;20215;-88
2022/08/03 11:05:40;;;;;;;1.52;1.42;;;40.40;44.20;;;;;;4970795;28;20264;-88
2022/08/03 11:08:30;;;;;;;2.03;1.85;;;40.10;45.00;;;;;;4970521;28;20266;-87
2022/08/03 11:11:01;;;;;;;1.73;1.60;;;39.80;46.70;;;;;;4970601;28;20231;-88
2022/08/03 11:13:32;;;;;;;1.42;1.25;;;39.60;46.90;;;;;;4973597;28;20235;-87
2022/08/03 11:16:04;;;;;;;2.17;1.98;;;39.70;45.80;;;;;;4973598;28;20208;-87
2022/08/03 11:18:36;;;;;;;1.45;1.40;;;39.90;47.20;;;;;;4973706;28;20246;-88
2022/08/03 11:21:07;;;;;;;1.50;1.40;;;40.40;47.20;;;;;;4973447;28;20234;-89
2022/08/03 11:23:46;;;;;;;1.55;1.45;;;40.70;44.60;;;;;;4973307;28;20295;-88
2022/08/03 11:26:33;;;;;;;1.83;1.73;;;40.80;46.10;;;;;;4973802;28;20204;-87
2022/08/03 11:29:29;;;;;;;4.60;1.67;;;40.90;45.90;;;;;;4973398;28;20234;-88
2022/08/03 11:31:57;;;;;;;1.70;1.60;;;41.20;44.00;;;;;;5007091;28;20200;-88
2022/08/03 11:34:26;;;;;;;1.63;1.52;;;41.10;44.40;;;;;;4973487;28;20249;-86
2022/08/03 11:37:22;;;;;;;1.38;1.38;;;41.30;43.90;;;;;;4973430;28;20315;-86
2022/08/03 11:39:55;;;;;;;1.98;1.88;;;41.40;43.50;;;;;;4972807;28;20253;-86
2022/08/03 11:42:47;;;;;;;1.60;1.50;;;41.40;43.80;;;;;;4973032;28;20223;-86
2022/08/03 11:45:16;;;;;;;2.45;2.00;;;41.00;43.60;;;;;;4972985;28;20315;-86
2022/08/03 11:47:44;;;;;;;1.67;1.58;;;40.70;43.40;;;;;;4973165;28;20271;-88
2022/08/03 11:50:20;;;;;;;1.95;1.70;;;40.80;43.60;;;;;;4972716;28;20224;-88
2022/08/03 11:52:50;;;;;;;1.50;1.40;;;40.90;45.20;;;;;;4973131;28;20219;-88
2022/08/03 11:55:20;;;;;;;1.90;1.80;;;40.90;42.80;;;;;;4973219;28;20220;-88
2022/08/03 11:57:49;;;;;;;1.52;1.42;;;40.50;42.30;;;;;;4973074;28;20204;-88
2022/08/03 12:00:37;;;;;;;2.63;1.92;;;40.60;43.20;;;;;;4972779;28;20232;-86
2022/08/03 12:03:08;;;;;;;2.35;2.15;;;40.40;42.40;;;;;;4972339;28;20230;-85
2022/08/03 12:05:38;;;;;;;2.10;2.00;;;40.30;43.50;;;;;;4972438;28;20269;-85
2022/08/03 12:08:09;;;;;;;1.90;1.80;;;40.40;43.60;;;;;;4972838;28;20261;-85
2022/08/03 12:10:40;;;;;;;1.73;1.63;;;40.50;42.00;;;;;;4972290;28;20228;-85
2022/08/03 12:13:08;;;;;;;1.88;1.73;;;40.40;42.30;;;;;;4972788;28;20303;-85
2022/08/03 12:15:58;;;;;;;2.15;1.95;;;40.50;42.20;;;;;;4972612;28;20204;-85
2022/08/03 12:18:26;;;;;;;2.22;2.03;;;40.30;42.60;;;;;;4972476;28;20208;-85
2022/08/03 12:21:05;;;;;;;1.90;1.80;;;39.50;42.20;;;;;;4972440;28;20255;-85
2022/08/03 12:23:35;;;;;;;1.33;1.27;;;39.30;42.30;;;;;;4971683;28;20216;-85
2022/08/03 12:26:06;;;;;;;1.83;1.73;;;39.30;42.30;;;;;;4972121;28;20259;-87
2022/08/03 12:28:35;;;;;;;2.25;2.00;;;39.40;43.10;;;;;;4971896;28;20268;-88
2022/08/03 12:31:08;;;;;;;5.63;2.38;;;39.60;43.30;;;;;;4972554;28;20285;-87
2022/08/03 12:34:02;;;;;;;3.28;2.17;;;39.60;43.20;;;;;;4973300;28;20207;-87
2022/08/03 12:36:32;;;;;;;1.65;1.55;;;39.70;43.60;;;;;;4972732;28;20295;-87
2022/08/03 12:39:04;;;;;;;2.17;1.85;;;39.80;42.20;;;;;;4971999;28;20208;-87
2022/08/03 12:41:34;;;;;;;3.45;1.90;;;39.80;40.60;;;;;;4972047;28;20270;-87
2022/08/03 12:44:03;;;;;;;1.92;1.83;;;39.50;40.60;;;;;;4972490;28;20227;-87
2022/08/03 12:46:34;;;;;;;1.90;1.80;;;39.40;40.10;;;;;;4972128;28;20339;-87
2022/08/03 12:49:05;;;;;;;2.03;1.92;;;39.30;42.40;;;;;;4972071;28;20294;-87
2022/08/03 12:51:35;;;;;;;4.85;2.55;;;39.50;42.70;;;;;;4972388;28;20285;-87
2022/08/03 12:54:05;;;;;;;1.92;1.83;;;39.50;41.00;;;;;;4972603;28;20239;-87
2022/08/03 12:56:34;;;;;;;2.40;2.20;;;39.40;41.20;;;;;;4972071;28;20291;-87
2022/08/03 12:59:26;;;;;;;2.22;2.03;;;39.40;40.50;;;;;;4971411;28;20212;-87
2022/08/03 13:02:03;;;;;;;2.50;2.08;;;39.20;41.40;;;;;;4971952;28;20295;-88
2022/08/03 13:04:37;;;;;;;1.77;1.67;;;38.70;43.00;;;;;;4972067;28;20219;-87
2022/08/03 13:07:07;;;;;;;1.80;1.70;;;38.90;41.10;;;;;;4971961;28;20295;-87
2022/08/03 13:09:48;;;;;;;1.60;1.50;;;38.80;41.70;;;;;;4971749;28;20239;-87
2022/08/03 13:12:18;;;;;;;1.42;1.40;;;38.50;40.30;;;;;;4972104;28;20208;-87
2022/08/03 13:14:51;;;;;;;2.80;1.90;;;38.40;41.90;;;;;;4972059;28;20215;-88
2022/08/03 13:17:19;;;;;;;1.50;1.40;;;38.30;41.10;;;;;;4973789;28;20243;-87
2022/08/03 13:19:50;;;;;;;1.70;1.60;;;37.60;41.40;;;;;;4974784;28;20200;-89
2022/08/03 13:22:21;;;;;;;1.58;1.50;;;37.50;42.70;;;;;;4974280;28;20262;-87
2022/08/03 13:24:54;;;;;;;1.70;1.50;;;37.50;42.90;;;;;;4972924;28;20259;-86
2022/08/03 13:27:23;;;;;;;1.60;1.50;;;37.60;42.00;;;;;;4972702;28;20215;-88